| time (UTC) | temp F | wind direction | speed knots | gust knots | rain 1hr in | rain 24hr in | rain mn in | humidity % | barometer mb |
| 20260506185700 | 80 | 315 | 6.1 | 13.0 | 0.00 | 0.00 | 0.04 | 95 | |
| 20260506184659 | 80 | 315 | 0.0 | 13.0 | 0.00 | 0.00 | 0.04 | 95 | |
| 20260506182658 | 82 | 315 | 0.0 | 13.0 | 0.00 | 0.00 | 0.04 | 95 | |
| 20260506181657 | 82 | 0 | 0.0 | 6.1 | 0.00 | 0.00 | 0.04 | 93 | |
| 20260506180656 | 80 | 0 | 0.0 | 13.0 | 0.00 | 0.00 | 0.04 | 95 | |
| 20260506173653 | 80 | 180 | 6.1 | 13.0 | 0.00 | 0.00 | 0.04 | 95 | |
| 20260506172653 | 80 | 180 | 0.0 | 20.0 | 0.00 | 0.00 | 0.04 | 95 | |
| 20260506171652 | 82 | 0 | 0.0 | 13.0 | 0.00 | 0.00 | 0.04 | 95 | |
| 20260506170651 | 80 | 0 | 0.0 | 13.0 | 0.00 | 0.00 | 0.04 | 95 | |
| 20260506165650 | 82 | 0 | 0.0 | 20.0 | 0.00 | 0.04 | 0.04 | 95 | |
| 20260506164649 | 82 | 0 | 6.1 | 13.0 | 0.00 | 0.04 | 0.04 | 95 | |
| 20260506163648 | 80 | 0 | 0.0 | 20.0 | 0.00 | 0.04 | 0.04 | 95 | |
| 20260506161646 | 82 | 0 | 0.0 | 6.1 | 0.00 | 0.04 | 0.04 | 95 | |
| 20260506155645 | 80 | 270 | 0.0 | 26.9 | 0.00 | 0.04 | 0.04 | 95 | |
| 20260506154645 | 82 | 270 | 13.0 | 40.8 | 0.00 | 0.04 | 0.04 | 95 | |
| 20260506152643 | 82 | 180 | 13.0 | 33.9 | 0.00 | 0.04 | 0.04 | 95 | |
| 20260506151642 | 82 | 270 | 0.0 | 6.1 | 0.00 | 0.04 | 0.04 | 95 | |
| 20260506150641 | 82 | 270 | 0.0 | 13.0 | 0.00 | 0.04 | 0.04 | 95 | |
| 20260506145639 | 82 | 0 | 6.1 | 26.9 | 0.00 | 0.04 | 0.04 | 95 | |
| 20260506143638 | 82 | 270 | 0.0 | 20.0 | 0.00 | 0.04 | 0.04 | 95 | |
| 20260506142637 | 82 | 270 | 0.0 | 20.0 | 0.00 | 0.04 | 0.04 | 95 | |
| 20260506141636 | 82 | 0 | 13.0 | 20.0 | 0.00 | 0.04 | 0.04 | 95 | |
| 20260506140635 | 82 | 0 | 0.0 | 13.0 | 0.00 | 0.04 | 0.04 | 93 | |
| 20260506135635 | 82 | 0 | 6.1 | 20.0 | 0.00 | 0.04 | 0.04 | 95 | |
| 20260506132632 | 82 | 0 | 0.0 | 13.0 | 0.00 | 0.04 | 0.04 | 95 | |
| 20260506131631 | 82 | 0 | 0.0 | 13.0 | 0.00 | 0.04 | 0.04 | 95 | |
| 20260506130631 | 84 | 0 | 0.0 | 13.0 | 0.00 | 0.04 | 0.04 | 95 | |
| 20260506124629 | 82 | 0 | 13.0 | 20.0 | 0.00 | 0.04 | 0.04 | 95 | |
| 20260506123629 | 82 | 270 | 0.0 | 13.0 | 0.00 | 0.04 | 0.04 | 95 | |
| 20260506120626 | 84 | 270 | 0.0 | 13.0 | 0.00 | 0.04 | 0.04 | 95 | |
| 20260506115626 | 82 | 270 | 13.0 | 26.9 | 0.00 | 0.04 | 0.04 | 95 | |
| 20260506114625 | 84 | 0 | 13.0 | 26.9 | 0.00 | 0.04 | 0.04 | 95 | |
| 20260506112623 | 84 | 180 | 0.0 | 13.0 | 0.00 | 0.04 | 0.04 | 95 | |
| 20260506111623 | 84 | 0 | 0.0 | 13.0 | 0.00 | 0.04 | 0.04 | 95 | |
| 20260506105621 | 86 | 315 | 6.1 | 13.0 | 0.00 | 0.04 | 0.04 | 95 | |
| 20260506103619 | 84 | 0 | 0.0 | 13.0 | 0.00 | 0.04 | 0.04 | 95 | |
| 20260506102618 | 82 | 180 | 0.0 | 13.0 | 0.00 | 0.04 | 0.04 | 95 | |
| 20260506100616 | 86 | 270 | 0.0 | 20.0 | 0.00 | 0.04 | 0.04 | 95 | |
| 20260506093614 | 82 | 0 | 13.0 | 26.9 | 0.02 | 0.04 | 0.04 | 86 | |
| 20260506091612 | 84 | 315 | 20.0 | 26.9 | 0.02 | 0.04 | 0.04 | 95 | |
| 20260506090611 | 84 | 315 | 6.1 | 26.9 | 0.02 | 0.04 | 0.04 | 95 | |
| 20260506084610 | 84 | 315 | 6.1 | 20.0 | 0.02 | 0.02 | 0.04 | 92 | |
| 20260506083609 | 80 | 180 | 0.0 | 47.8 | 0.02 | 0.02 | 0.04 | 95 | |
| 20260506081607 | 84 | 180 | 26.9 | 68.6 | 0.02 | 0.02 | 0.04 | 95 | |
| 20260506071602 | 89 | 180 | 40.8 | 82.6 | 0.00 | 0.00 | 0.04 | 95 | |
| 20260506070601 | 87 | 180 | 33.9 | 88.6 | 0.00 | 0.00 | 0.04 | 95 | |
| 20260506060557 | 95 | 90 | 13.0 | 61.7 | 0.00 | 0.00 | 0.04 | 16 | |
| 20260506050552 | 93 | 0 | 13.0 | 54.7 | 0.00 | 0.00 | 0.04 | 11 | |
| 20260506044551 | 95 | 0 | 0.0 | 40.8 | 0.00 | 0.00 | 0.04 | 10 | |
| 20260506043551 | 95 | 0 | 20.0 | 33.9 | 0.00 | 0.00 | 0.04 | 24 | |
| 20260506042550 | 91 | 180 | 6.1 | 33.9 | 0.00 | 0.00 | 0.04 | 46 | |
| 20260506040548 | 89 | 180 | 0.0 | 40.8 | 0.00 | 0.00 | 0.04 | 71 | |
| 20260506035548 | 89 | 180 | 6.1 | 40.8 | 0.00 | 0.00 | 0.04 | 95 | |
| 20260506034547 | 89 | 180 | 6.1 | 54.7 | 0.00 | 0.00 | 0.04 | 95 | |
| 20260506032545 | 91 | 180 | 20.0 | 68.6 | 0.00 | 0.00 | 0.04 | 95 | |
| 20260506031544 | 87 | 180 | 13.0 | 54.7 | 0.00 | 0.00 | 0.04 | 95 | |
| 20260506030543 | 89 | 180 | 13.0 | 47.8 | 0.00 | 0.00 | 0.04 | 95 | |
| 20260506024541 | 91 | 315 | 6.1 | 26.9 | 0.00 | 0.00 | 0.04 | 95 | |
| 20260506023540 | 93 | 315 | 6.1 | 26.9 | 0.00 | 0.00 | 0.04 | 94 | |
| 20260506022540 | 91 | 315 | 6.1 | 26.9 | 0.00 | 0.00 | 0.04 | 95 | |
| 20260506021539 | 89 | 180 | 0.0 | 26.9 | 0.00 | 0.00 | 0.04 | 95 | |
| 20260506020539 | 87 | 180 | 0.0 | 20.0 | 0.00 | 0.00 | 0.04 | 95 | |
| 20260506015538 | 86 | 180 | 13.0 | 26.9 | 0.00 | 0.00 | 0.04 | 95 | |
| 20260506013537 | 86 | 180 | 13.0 | 20.0 | 0.00 | 0.00 | 0.04 | 95 | |
| 20260506012536 | 86 | 270 | 13.0 | 13.0 | 0.00 | 0.00 | 0.04 | 95 | |
| 20260506010535 | 84 | 270 | 6.1 | 26.9 | 0.00 | 0.00 | 0.04 | 95 | |
| 20260506005534 | 84 | 270 | 6.1 | 26.9 | 0.00 | 0.00 | 0.04 | 95 | |
| 20260506003533 | 82 | 270 | 6.1 | 13.0 | 0.00 | 0.00 | 0.04 | 95 | |
| 20260506002532 | 82 | 315 | 6.1 | 20.0 | 0.00 | 0.00 | 0.04 | 95 | |
| 20260506001532 | 82 | 315 | 13.0 | 33.9 | 0.00 | 0.00 | 0.04 | 95 | |
| 20260506000531 | 82 | 315 | 0.0 | 13.0 | 0.00 | 0.00 | 0.04 | 95 | |
| 20260505234530 | 80 | 180 | 0.0 | 13.0 | 0.00 | 0.00 | 0.04 | 95 | |
| 20260505233529 | 80 | 180 | 0.0 | 13.0 | 0.00 | 0.00 | 0.04 | 95 | |
| 20260505231527 | 82 | 180 | 0.0 | 13.0 | 0.00 | 0.00 | 0.04 | 95 | |
| 20260505230527 | 80 | 270 | 0.0 | 6.1 | 0.00 | 0.00 | 0.04 | 95 | |
| 20260505225526 | 80 | 270 | 0.0 | 13.0 | 0.00 | 0.00 | 0.04 | 95 | |
| 20260505223524 | 80 | 270 | 13.0 | 20.0 | 0.00 | 0.00 | 0.04 | 95 | |
| 20260505222524 | 80 | 315 | 0.0 | 13.0 | 0.00 | 0.00 | 0.04 | 95 | |
| 20260505220522 | 80 | 315 | 0.0 | 13.0 | 0.00 | 0.00 | 0.04 | 95 | |
| 20260505215521 | 80 | 315 | 0.0 | 0.0 | 0.00 | 0.00 | 0.04 | 95 | |
| 20260505213520 | 82 | 315 | 0.0 | 13.0 | 0.00 | 0.00 | 0.04 | 95 | |
| 20260505212519 | 80 | 180 | 0.0 | 0.0 | 0.00 | 0.00 | 0.04 | 95 | |
| 20260505205516 | 80 | 0 | 0.0 | 20.0 | 0.00 | 0.00 | 0.04 | 95 | |
| 20260505203515 | 82 | 270 | 6.1 | 20.0 | 0.00 | 0.00 | 0.04 | 95 | |
| 20260505201513 | 82 | 315 | 0.0 | 6.1 | 0.00 | 0.00 | 0.04 | 95 | |
| 20260505200513 | 80 | 315 | 0.0 | 6.1 | 0.00 | 0.00 | 0.04 | 95 | |
| 20260505195512 | 82 | 315 | 0.0 | 13.0 | 0.00 | 0.00 | 0.04 | 95 | |
| 20260505194511 | 80 | 315 | 0.0 | 0.0 | 0.00 | 0.00 | 0.04 | 95 | |
| 20260505192509 | 82 | 180 | 13.0 | 13.0 | 0.00 | 0.00 | 0.04 | 95 |